CYXL

Sioux Lookout Airport

Sioux Lookout, Ontario, Canada
TAF AMD CYXL 261140Z 2611/2620 35008KT P6SM BKN007 OVC020 TEMPO 2611/2614 SCT007 OVC020 FM261400 35008KT P6SM BKN015 OVC025 TEMPO 2614/2618 SCT015 BKN025 FM261800 34008KT P6SM BKN030 RMK NXT FCST BY 261400Z
Issued Valid From Valid To
Apr-26 @ 11:40 UTC
(2 hours ago)
Apr-26 @ 11:00 UTC
(3 hours ago)
Apr-26 @ 20:00 UTC
(in 6 hours)
Apr-26 @ 11:00 to Apr-26 @ 14:00
TAF AMD CYXL 261140Z 2611/2620 35008KT P6SM BKN007 OVC020
Wind Visibility Clouds
350° at 8 knots Greater than 6 miles
  • Broken at 700' AGL
  • Overcast at 2,000' AGL
Temporary Apr-26 @ 11:00 to Apr-26 @ 14:00
TEMPO 2611/2614 SCT007 OVC020
Clouds
  • Scattered at 700' AGL
  • Overcast at 2,000' AGL
From Apr-26 @ 14:00 to Apr-26 @ 18:00
FM261400 35008KT P6SM BKN015 OVC025
Wind Visibility Clouds
350° at 8 knots Greater than 6 miles
  • Broken at 1,500' AGL
  • Overcast at 2,500' AGL
Temporary Apr-26 @ 14:00 to Apr-26 @ 18:00
TEMPO 2614/2618 SCT015 BKN025
Clouds
  • Scattered at 1,500' AGL
  • Broken at 2,500' AGL
From Apr-26 @ 18:00 to Apr-26 @ 20:00
FM261800 34008KT P6SM BKN030 RMK NXT FCST BY 261400Z
Wind Visibility Clouds
340° at 8 knots Greater than 6 miles
  • Broken at 3,000' AGL
TAF AMD CYXL 261140Z 2611/2620 35008KT P6SM BKN007 OVC020 TEMPO 2611/2614 SCT007 OVC020 FM261400 35008KT P6SM BKN015 OVC025 TEMPO 2614/2618 SCT015 BKN025 FM261800 34008KT P6SM BKN030 RMK NXT FCST BY 261400Z
Issued Apr-26 @ 11:40 UTC
(2 hours ago)
Valid From Apr-26 @ 11:00 UTC
(3 hours ago)
Valid To Apr-26 @ 20:00 UTC
(in 6 hours)
Apr-26 @ 11:00 - Apr-26 @ 14:00
Wind Visibility
350° at 8 knots Greater than 6 miles
Clouds
  • Broken at 700' AGL
  • Overcast at 2,000' AGL
Temporary Apr-26 @ 11:00 - Apr-26 @ 14:00
Clouds
  • Scattered at 700' AGL
  • Overcast at 2,000' AGL
From Apr-26 @ 14:00 - Apr-26 @ 18:00
Wind Visibility
350° at 8 knots Greater than 6 miles
Clouds
  • Broken at 1,500' AGL
  • Overcast at 2,500' AGL
Temporary Apr-26 @ 14:00 - Apr-26 @ 18:00
Clouds
  • Scattered at 1,500' AGL
  • Broken at 2,500' AGL
From Apr-26 @ 18:00 - Apr-26 @ 20:00
Wind Visibility
340° at 8 knots Greater than 6 miles
Clouds
  • Broken at 3,000' AGL